createdAt,value
2022-10-05T00:01:47.022Z,7.33
2022-10-05T00:04:19.513Z,6.63
2022-10-05T00:06:51.959Z,7.53
2022-10-05T00:09:21.730Z,6.43
2022-10-05T00:11:50.010Z,7.37
2022-10-05T00:14:37.073Z,7.73
2022-10-05T00:17:06.033Z,8.23
2022-10-05T00:19:40.199Z,8.30
2022-10-05T00:22:28.275Z,6.53
2022-10-05T00:25:00.838Z,6.03
2022-10-05T00:27:34.047Z,7.57
2022-10-05T00:30:08.841Z,6.50
2022-10-05T00:32:36.745Z,9.13
2022-10-05T00:35:04.739Z,6.10
2022-10-05T00:37:32.600Z,8.07
2022-10-05T00:40:00.485Z,6.90
2022-10-05T00:42:37.781Z,6.37
2022-10-05T00:45:09.313Z,6.40
2022-10-05T00:47:43.226Z,7.80
2022-10-05T00:50:11.215Z,6.97
2022-10-05T00:52:51.242Z,6.97
2022-10-05T00:55:32.182Z,7.37
2022-10-05T00:58:02.782Z,7.70
2022-10-05T01:00:32.009Z,6.70
2022-10-05T01:03:05.648Z,6.60
2022-10-05T01:05:52.115Z,7.50
2022-10-05T01:08:26.789Z,7.20
2022-10-05T01:11:06.933Z,7.93
2022-10-05T01:13:41.064Z,6.33
2022-10-05T01:16:16.509Z,6.27
2022-10-05T01:18:53.837Z,7.33
2022-10-05T01:21:22.969Z,6.40
2022-10-05T01:24:08.877Z,7.10
2022-10-05T01:26:57.075Z,8.13
2022-10-05T01:29:24.918Z,6.33
2022-10-05T01:32:11.575Z,8.00
2022-10-05T01:34:42.113Z,7.80
2022-10-05T01:37:16.313Z,7.03
2022-10-05T01:40:02.974Z,8.17
2022-10-05T01:42:49.363Z,6.43
2022-10-05T01:45:20.039Z,6.40
2022-10-05T01:47:50.954Z,6.37
2022-10-05T01:50:21.822Z,5.57
2022-10-05T01:53:05.659Z,7.43
2022-10-05T01:55:40.604Z,6.70
2022-10-05T01:58:12.708Z,8.30
2022-10-05T02:00:53.897Z,6.30
2022-10-05T02:03:26.296Z,7.47
2022-10-05T02:05:57.493Z,6.70
2022-10-05T02:08:36.983Z,6.73
2022-10-05T02:11:07.325Z,7.27
2022-10-05T02:13:38.893Z,8.77
2022-10-05T02:16:15.237Z,6.23
2022-10-05T02:18:48.013Z,6.47
2022-10-05T02:21:16.008Z,11.60
2022-10-05T02:23:45.774Z,8.13
2022-10-05T02:26:14.059Z,7.27
2022-10-05T02:28:42.602Z,6.63
2022-10-05T02:31:22.764Z,7.97
2022-10-05T02:33:50.825Z,7.07
2022-10-05T02:36:20.440Z,9.93
2022-10-05T02:39:03.724Z,6.53
2022-10-05T02:41:43.322Z,7.47
2022-10-05T02:44:20.833Z,7.67
2022-10-05T02:46:57.207Z,6.47
2022-10-05T02:49:45.527Z,7.20
2022-10-05T02:52:19.594Z,7.47
2022-10-05T02:54:50.256Z,7.27
2022-10-05T02:57:56.804Z,8.37
2022-10-05T03:00:27.196Z,6.80
2022-10-05T03:03:07.157Z,7.60
2022-10-05T03:05:38.250Z,8.93
2022-10-05T03:08:16.391Z,8.00
2022-10-05T03:10:54.351Z,7.13
2022-10-05T03:13:29.266Z,8.23
2022-10-05T03:16:03.832Z,9.17
2022-10-05T03:18:37.738Z,10.37
2022-10-05T03:21:19.478Z,8.47
2022-10-05T03:23:51.402Z,8.93
2022-10-05T03:26:26.463Z,7.60
2022-10-05T03:29:08.031Z,7.10
2022-10-05T03:31:54.992Z,8.03
2022-10-05T03:34:30.707Z,8.20
2022-10-05T03:37:24.730Z,7.37
2022-10-05T03:40:02.057Z,7.33
2022-10-05T03:42:30.360Z,9.17
2022-10-05T03:45:09.282Z,7.77
2022-10-05T03:48:01.592Z,6.37
2022-10-05T03:50:42.755Z,8.30
2022-10-05T03:53:19.496Z,7.10
2022-10-05T03:55:49.086Z,6.47
2022-10-05T03:58:33.830Z,7.30
2022-10-05T04:01:07.533Z,8.27
2022-10-05T04:03:39.233Z,8.03
2022-10-05T04:06:16.036Z,6.63
2022-10-05T04:08:48.492Z,8.87
2022-10-05T04:11:27.981Z,8.80
2022-10-05T04:14:00.247Z,8.90
2022-10-05T04:16:31.249Z,7.17
2022-10-05T04:19:12.392Z,6.77
2022-10-05T04:21:53.169Z,7.87
2022-10-05T04:24:44.913Z,6.63
2022-10-05T04:27:22.461Z,8.67
2022-10-05T04:29:55.293Z,8.77
2022-10-05T04:32:38.520Z,7.83
2022-10-05T04:35:17.493Z,7.47
2022-10-05T04:38:03.702Z,7.50
2022-10-05T04:40:47.130Z,8.07
2022-10-05T04:43:30.673Z,7.47
2022-10-05T04:46:01.686Z,8.53
2022-10-05T04:48:29.520Z,8.20
2022-10-05T04:51:12.780Z,8.03
2022-10-05T04:53:46.462Z,8.20
2022-10-05T04:56:23.510Z,8.07
2022-10-05T04:59:10.833Z,7.50
2022-10-05T05:01:44.886Z,7.60
2022-10-05T05:04:14.576Z,7.93
2022-10-05T05:06:46.285Z,7.57
2022-10-05T05:09:23.643Z,8.50
2022-10-05T05:11:54.643Z,7.77
2022-10-05T05:14:29.262Z,8.60
2022-10-05T05:17:00.228Z,10.17
2022-10-05T05:19:31.737Z,8.57
2022-10-05T05:22:06.275Z,8.43
2022-10-05T05:24:55.818Z,8.13
2022-10-05T05:27:44.181Z,8.67
2022-10-05T05:30:20.727Z,9.33
2022-10-05T05:32:49.048Z,7.10
2022-10-05T05:35:26.047Z,8.90
2022-10-05T05:38:01.372Z,8.07
2022-10-05T05:40:33.174Z,8.83
2022-10-05T05:43:08.237Z,8.53
2022-10-05T05:45:36.349Z,8.30
2022-10-05T05:48:06.601Z,7.73
2022-10-05T05:50:43.829Z,7.93
2022-10-05T05:53:30.973Z,8.57
2022-10-05T05:56:07.207Z,9.20
2022-10-05T05:58:40.713Z,8.73
2022-10-05T06:01:32.250Z,8.83
2022-10-05T06:04:06.331Z,9.83
2022-10-05T06:06:37.148Z,9.97
2022-10-05T06:09:07.711Z,7.67
2022-10-05T06:12:08.691Z,9.60
2022-10-05T06:14:41.274Z,9.83
2022-10-05T06:17:15.060Z,8.57
2022-10-05T06:19:44.218Z,9.50
2022-10-05T06:22:33.168Z,8.13
2022-10-05T06:25:13.422Z,9.20
2022-10-05T06:28:02.910Z,8.17
2022-10-05T06:30:38.903Z,8.07
2022-10-05T06:33:23.904Z,9.03
2022-10-05T06:36:04.301Z,9.43
2022-10-05T06:38:35.764Z,8.23
2022-10-05T06:41:06.818Z,8.33
2022-10-05T06:43:45.270Z,8.23
2022-10-05T06:46:19.693Z,8.23
2022-10-05T06:49:22.570Z,9.67
2022-10-05T06:52:15.195Z,13.17
2022-10-05T06:54:49.946Z,9.63
2022-10-05T06:57:38.481Z,9.93
2022-10-05T07:00:16.652Z,10.17
2022-10-05T07:03:03.434Z,11.07
2022-10-05T07:05:38.523Z,12.67
2022-10-05T07:08:25.247Z,9.57
2022-10-05T07:11:11.855Z,10.10
2022-10-05T07:13:47.454Z,8.53
2022-10-05T07:16:27.652Z,9.40
2022-10-05T07:18:59.648Z,8.77
2022-10-05T07:21:30.732Z,9.53
2022-10-05T07:24:05.834Z,9.07
2022-10-05T07:26:37.055Z,9.70
2022-10-05T07:29:08.411Z,9.27
2022-10-05T07:31:52.516Z,10.90
2022-10-05T07:34:23.724Z,10.87
2022-10-05T07:37:20.053Z,10.00
2022-10-05T07:40:01.384Z,11.13
2022-10-05T07:42:50.493Z,9.27
2022-10-05T07:45:29.885Z,9.27
2022-10-05T07:48:19.948Z,9.30
2022-10-05T07:51:00.844Z,9.33
2022-10-05T07:53:36.376Z,9.97
2022-10-05T07:56:16.374Z,11.57
2022-10-05T07:58:54.481Z,11.60
2022-10-05T08:01:39.222Z,10.80
2022-10-05T08:04:16.241Z,11.20
2022-10-05T08:06:53.022Z,9.63
2022-10-05T08:09:30.186Z,10.23
2022-10-05T08:12:16.754Z,11.93
2022-10-05T08:14:54.110Z,15.10
2022-10-05T08:17:26.699Z,10.07
2022-10-05T08:20:01.254Z,9.67
2022-10-05T08:22:36.247Z,9.60
2022-10-05T08:25:06.211Z,13.57
2022-10-05T08:27:44.506Z,11.13
2022-10-05T08:30:13.508Z,10.07
2022-10-05T08:32:50.700Z,10.00
2022-10-05T08:35:28.293Z,9.33
2022-10-05T08:37:57.245Z,9.70
2022-10-05T08:40:43.663Z,11.07
2022-10-05T08:43:37.580Z,11.10
2022-10-05T08:46:24.069Z,11.30
2022-10-05T08:49:04.936Z,10.33
2022-10-05T08:51:38.756Z,9.30
2022-10-05T08:54:21.851Z,11.00
2022-10-05T08:56:56.702Z,10.37
2022-10-05T08:59:43.312Z,10.63
2022-10-05T09:02:33.073Z,9.83
2022-10-05T09:05:19.421Z,9.63
2022-10-05T09:07:59.717Z,8.27
2022-10-05T09:10:34.873Z,11.13
2022-10-05T09:13:11.955Z,9.50
2022-10-05T09:15:48.682Z,11.03
2022-10-05T09:18:19.798Z,9.67
2022-10-05T09:20:55.503Z,10.20
2022-10-05T09:23:26.635Z,10.23
2022-10-05T09:25:55.175Z,10.17
2022-10-05T09:28:26.273Z,9.63
2022-10-05T09:30:57.421Z,10.10
2022-10-05T09:33:31.378Z,11.00
2022-10-05T09:36:18.301Z,11.37
2022-10-05T09:38:51.129Z,8.97
2022-10-05T09:41:37.571Z,9.70
2022-10-05T09:44:19.031Z,11.17
2022-10-05T09:47:05.248Z,10.87
2022-10-05T09:49:59.227Z,9.67
2022-10-05T09:52:45.801Z,12.20
2022-10-05T09:55:32.307Z,9.70
2022-10-05T09:58:07.455Z,8.90
2022-10-05T10:00:55.647Z,8.57
2022-10-05T10:03:55.248Z,10.53
2022-10-05T10:06:32.098Z,9.27
2022-10-05T10:09:02.834Z,9.50
2022-10-05T10:11:33.820Z,11.47
2022-10-05T10:14:11.137Z,9.60
2022-10-05T10:16:44.679Z,8.33
2022-10-05T10:19:31.353Z,9.87
2022-10-05T10:22:11.478Z,8.33
2022-10-05T10:24:39.393Z,8.40
2022-10-05T10:27:17.245Z,8.83
2022-10-05T10:29:51.958Z,9.70
2022-10-05T10:32:40.433Z,9.43
2022-10-05T10:35:26.849Z,9.50
2022-10-05T10:37:58.798Z,9.23
2022-10-05T10:40:35.208Z,8.57
2022-10-05T10:43:17.466Z,8.90
2022-10-05T10:45:57.772Z,8.53
2022-10-05T10:48:31.685Z,9.00
2022-10-05T10:50:59.602Z,8.10
2022-10-05T10:53:37.691Z,9.20
2022-10-05T10:56:18.741Z,8.67
2022-10-05T10:59:02.584Z,9.53
2022-10-05T11:01:42.106Z,11.00
2022-10-05T11:04:10.129Z,10.83
2022-10-05T11:07:22.661Z,8.87
2022-10-05T11:09:57.380Z,8.87
2022-10-05T11:12:25.297Z,8.20
2022-10-05T11:15:14.910Z,9.60
2022-10-05T11:17:53.248Z,10.00
2022-10-05T11:20:26.714Z,11.00
2022-10-05T11:22:54.600Z,10.73
2022-10-05T11:25:44.537Z,9.03
2022-10-05T11:28:15.606Z,9.20
2022-10-05T11:31:07.258Z,11.07
2022-10-05T11:33:54.035Z,10.10
2022-10-05T11:36:31.022Z,10.13
2022-10-05T11:39:04.938Z,8.53
2022-10-05T11:41:51.899Z,7.53
2022-10-05T11:44:26.515Z,8.50
2022-10-05T11:47:03.112Z,8.60
2022-10-05T11:49:51.368Z,7.93
2022-10-05T11:52:24.393Z,10.37
2022-10-05T11:55:11.999Z,8.90
2022-10-05T11:57:55.546Z,7.50
2022-10-05T12:00:23.487Z,8.60
2022-10-05T12:02:51.438Z,7.40
2022-10-05T12:05:25.566Z,8.63
2022-10-05T12:08:05.705Z,7.63
2022-10-05T12:10:53.840Z,8.70
2022-10-05T12:13:33.541Z,7.88
2022-10-05T12:16:13.831Z,7.70
2022-10-05T12:18:50.108Z,7.43
2022-10-05T12:21:23.991Z,7.93
2022-10-05T12:23:55.096Z,8.38
2022-10-05T12:26:26.004Z,7.25
2022-10-05T12:29:07.101Z,9.20
2022-10-05T12:31:44.033Z,7.88
2022-10-05T12:34:30.206Z,7.22
2022-10-05T12:37:13.957Z,8.13
2022-10-05T12:40:00.375Z,6.50
2022-10-05T12:42:28.335Z,8.00
2022-10-05T12:45:22.749Z,7.03
2022-10-05T12:47:53.743Z,7.57
2022-10-05T12:50:27.373Z,7.72
2022-10-05T12:53:05.327Z,6.90
2022-10-05T12:55:43.399Z,7.03
2022-10-05T12:58:26.827Z,6.53
2022-10-05T13:01:13.412Z,6.70
2022-10-05T13:03:46.100Z,7.32
2022-10-05T13:06:21.601Z,8.88
2022-10-05T13:08:55.952Z,9.00
2022-10-05T13:11:30.296Z,7.25
2022-10-05T13:14:02.812Z,8.82
2022-10-05T13:16:31.067Z,7.55
2022-10-05T13:19:02.002Z,6.57
2022-10-05T13:21:48.227Z,9.18
2022-10-05T13:24:17.577Z,7.68
2022-10-05T13:26:48.815Z,8.80
2022-10-05T13:29:35.594Z,7.60
2022-10-05T13:32:23.737Z,6.95
2022-10-05T13:35:22.415Z,7.03
2022-10-05T13:37:53.427Z,8.40
2022-10-05T13:40:30.635Z,10.13
2022-10-05T13:43:05.120Z,7.70
2022-10-05T13:45:36.268Z,6.85
2022-10-05T13:48:10.438Z,7.03
2022-10-05T13:50:58.454Z,7.72
2022-10-05T13:53:29.659Z,8.23
2022-10-05T13:56:02.098Z,8.20
2022-10-05T13:58:34.039Z,8.48
2022-10-05T14:01:09.647Z,7.70
2022-10-05T14:03:38.901Z,8.05
2022-10-05T14:06:12.096Z,6.95
2022-10-05T14:08:52.103Z,6.95
2022-10-05T14:11:23.037Z,6.28
2022-10-05T14:13:52.407Z,7.47
2022-10-05T14:16:22.717Z,8.57
2022-10-05T14:19:00.046Z,10.43
2022-10-05T14:21:30.981Z,7.35
2022-10-05T14:24:32.178Z,7.10
2022-10-05T14:27:23.026Z,6.25
2022-10-05T14:30:14.261Z,6.70
2022-10-05T14:32:56.413Z,6.97
2022-10-05T14:35:26.204Z,7.40
2022-10-05T14:37:57.086Z,6.10
2022-10-05T14:40:27.083Z,8.02
2022-10-05T14:42:55.226Z,7.20
2022-10-05T14:45:31.004Z,7.10
2022-10-05T14:48:02.048Z,6.55
2022-10-05T14:50:32.419Z,6.70
2022-10-05T14:53:13.119Z,8.88
2022-10-05T14:55:56.391Z,6.45
2022-10-05T14:58:43.479Z,6.70
2022-10-05T15:01:24.493Z,6.80
2022-10-05T15:03:58.423Z,8.32
2022-10-05T15:06:38.515Z,7.97
2022-10-05T15:09:19.368Z,7.47
2022-10-05T15:11:50.666Z,8.75
2022-10-05T15:14:21.579Z,7.55
2022-10-05T15:16:51.661Z,7.57
2022-10-05T15:19:31.953Z,8.32
2022-10-05T15:22:00.491Z,7.28
2022-10-05T15:24:32.727Z,6.80
2022-10-05T15:27:03.354Z,6.65
2022-10-05T15:29:42.692Z,8.65
2022-10-05T15:32:29.188Z,9.05
2022-10-05T15:35:16.099Z,7.18
2022-10-05T15:37:52.417Z,7.32
2022-10-05T15:40:23.279Z,7.03
2022-10-05T15:42:53.506Z,7.45
2022-10-05T15:45:25.309Z,7.78
2022-10-05T15:48:01.396Z,6.55
2022-10-05T15:50:32.719Z,6.05
2022-10-05T15:53:06.673Z,8.48
2022-10-05T15:55:54.960Z,7.18
2022-10-05T15:58:43.414Z,7.60
2022-10-05T16:01:12.821Z,6.65
2022-10-05T16:03:44.030Z,6.47
2022-10-05T16:06:49.307Z,7.15
2022-10-05T16:09:35.876Z,7.82
2022-10-05T16:12:11.016Z,7.40
2022-10-05T16:14:57.870Z,7.38
2022-10-05T16:17:34.189Z,6.00
2022-10-05T16:20:06.692Z,6.95
2022-10-05T16:22:43.394Z,6.93
2022-10-05T16:25:22.610Z,6.45
2022-10-05T16:28:19.990Z,7.30
2022-10-05T16:31:09.126Z,9.75
2022-10-05T16:33:46.724Z,7.25
2022-10-05T16:36:16.661Z,8.27
2022-10-05T16:38:55.975Z,7.35
2022-10-05T16:41:29.660Z,6.75
2022-10-05T16:43:57.495Z,8.07
2022-10-05T16:46:36.983Z,8.15
2022-10-05T16:49:18.363Z,7.82
2022-10-05T16:52:00.075Z,8.25
2022-10-05T16:54:27.955Z,6.85
2022-10-05T16:56:59.749Z,7.25
2022-10-05T16:59:46.248Z,7.22
2022-10-05T17:02:32.710Z,7.50
2022-10-05T17:05:20.323Z,7.97
2022-10-05T17:08:03.347Z,6.82
2022-10-05T17:10:37.539Z,6.72
2022-10-05T17:13:05.508Z,7.03
2022-10-05T17:15:36.566Z,7.45
2022-10-05T17:18:24.091Z,7.97
2022-10-05T17:21:12.646Z,6.68
2022-10-05T17:23:40.614Z,6.72
2022-10-05T17:26:14.816Z,7.72
2022-10-05T17:28:45.509Z,7.38
2022-10-05T17:31:17.641Z,7.38
2022-10-05T17:34:01.032Z,7.05
2022-10-05T17:36:50.234Z,7.18
2022-10-05T17:39:22.818Z,6.88
2022-10-05T17:41:50.850Z,9.32
2022-10-05T17:44:20.963Z,8.00
2022-10-05T17:46:48.983Z,7.32
2022-10-05T17:49:27.153Z,7.95
2022-10-05T17:52:13.468Z,6.93
2022-10-05T17:55:05.878Z,7.55
2022-10-05T17:57:36.962Z,7.40
2022-10-05T18:00:29.755Z,7.97
2022-10-05T18:02:58.413Z,7.45
2022-10-05T18:05:28.137Z,10.88
2022-10-05T18:08:15.944Z,7.82
2022-10-05T18:11:06.912Z,9.82
2022-10-05T18:13:50.377Z,10.85
2022-10-05T18:16:36.643Z,16.00
2022-10-05T18:19:15.715Z,12.30
2022-10-05T18:22:01.016Z,32.42
2022-10-05T18:24:34.645Z,64.82
2022-10-05T18:27:17.076Z,20.02
2022-10-05T18:30:06.009Z,36.50
2022-10-05T18:32:37.081Z,34.08
2022-10-05T18:35:16.565Z,34.75
2022-10-05T18:37:53.115Z,16.50
2022-10-05T18:40:59.890Z,33.63
2022-10-05T18:43:38.754Z,12.73
2022-10-05T18:46:13.033Z,13.68
2022-10-05T18:48:41.077Z,13.95
2022-10-05T18:51:20.070Z,10.50
2022-10-05T18:54:04.878Z,13.50
2022-10-05T18:56:45.020Z,10.10
2022-10-05T18:59:32.433Z,12.50
2022-10-05T19:02:20.248Z,9.50
2022-10-05T19:04:51.335Z,10.50
2022-10-05T19:07:24.651Z,10.27
2022-10-05T19:09:58.678Z,10.27
2022-10-05T19:12:29.875Z,10.20
2022-10-05T19:15:06.897Z,12.65
2022-10-05T19:17:59.897Z,10.60
2022-10-05T19:20:27.806Z,12.10
2022-10-05T19:23:12.387Z,10.98
2022-10-05T19:25:47.714Z,10.10
2022-10-05T19:28:52.809Z,10.70
2022-10-05T19:31:30.211Z,12.00
2022-10-05T19:34:14.659Z,8.05
2022-10-05T19:36:51.407Z,9.02
2022-10-05T19:39:28.596Z,9.15
2022-10-05T19:42:02.744Z,8.52
2022-10-05T19:44:39.429Z,9.43
2022-10-05T19:47:17.806Z,10.43
2022-10-05T19:49:57.407Z,8.32
2022-10-05T19:52:44.172Z,9.68
2022-10-05T19:55:17.114Z,8.43
2022-10-05T19:57:49.580Z,12.00
2022-10-05T20:00:24.912Z,8.88
2022-10-05T20:02:58.389Z,9.40
2022-10-05T20:05:26.440Z,10.27
2022-10-05T20:07:54.295Z,9.35
2022-10-05T20:10:29.360Z,8.88
2022-10-05T20:13:05.304Z,8.45
2022-10-05T20:15:55.426Z,8.05
2022-10-05T20:18:55.571Z,7.68
2022-10-05T20:22:01.636Z,8.82
2022-10-05T20:24:32.141Z,8.93
2022-10-05T20:27:08.753Z,8.38
2022-10-05T20:29:41.746Z,10.05
2022-10-05T20:32:13.746Z,8.70
2022-10-05T20:34:45.491Z,12.68
2022-10-05T20:37:17.104Z,9.13
2022-10-05T20:39:45.110Z,7.65
2022-10-05T20:42:13.112Z,8.40
2022-10-05T20:44:41.352Z,8.68
2022-10-05T20:47:10.181Z,7.68
2022-10-05T20:49:39.366Z,8.27
2022-10-05T20:52:09.904Z,7.72
2022-10-05T20:54:38.835Z,8.13
2022-10-05T20:57:07.002Z,8.20
2022-10-05T20:59:35.159Z,8.27
2022-10-05T21:02:04.028Z,8.18
2022-10-05T21:04:40.802Z,7.95
2022-10-05T21:07:09.790Z,8.02
2022-10-05T21:09:39.501Z,7.85
2022-10-05T21:12:07.443Z,7.47
2022-10-05T21:14:36.602Z,10.60
2022-10-05T21:17:05.207Z,8.93
2022-10-05T21:19:38.611Z,7.68
2022-10-05T21:22:07.735Z,7.38
2022-10-05T21:24:36.669Z,8.25
2022-10-05T21:27:05.116Z,7.95
2022-10-05T21:29:34.455Z,7.93
2022-10-05T21:32:02.725Z,8.38
2022-10-05T21:34:30.714Z,7.57
2022-10-05T21:36:58.558Z,7.47
2022-10-05T21:39:27.145Z,7.50
2022-10-05T21:41:55.083Z,9.63
2022-10-05T21:44:22.854Z,7.80
2022-10-05T21:46:50.885Z,6.97
2022-10-05T21:49:19.840Z,7.27
2022-10-05T21:51:48.306Z,7.90
2022-10-05T21:54:17.751Z,8.17
2022-10-05T21:56:47.484Z,8.32
2022-10-05T21:59:17.563Z,8.80
2022-10-05T22:01:46.436Z,6.70
2022-10-05T22:04:15.281Z,8.30
2022-10-05T22:06:43.192Z,6.47
2022-10-05T22:09:11.232Z,7.93
2022-10-05T22:11:39.109Z,10.88
2022-10-05T22:14:06.973Z,7.25
2022-10-05T22:16:37.239Z,8.80
2022-10-05T22:19:06.391Z,8.07
2022-10-05T22:21:38.494Z,9.63
2022-10-05T22:24:06.476Z,7.70
2022-10-05T22:26:35.170Z,8.40
2022-10-05T22:29:03.451Z,6.87
2022-10-05T22:31:31.497Z,7.70
2022-10-05T22:33:59.359Z,6.83
2022-10-05T22:36:27.372Z,8.03
2022-10-05T22:38:55.370Z,9.53
2022-10-05T22:41:23.396Z,7.60
2022-10-05T22:43:52.200Z,8.40
2022-10-05T22:46:20.513Z,9.10
2022-10-05T22:48:48.744Z,8.30
2022-10-05T22:51:16.600Z,8.20
2022-10-05T22:53:44.539Z,7.50
2022-10-05T22:56:13.045Z,7.77
2022-10-05T22:58:41.364Z,6.87
2022-10-05T23:01:10.616Z,7.73
2022-10-05T23:03:38.843Z,9.97
2022-10-05T23:06:09.465Z,8.47
2022-10-05T23:08:38.687Z,8.27
2022-10-05T23:11:11.007Z,7.03
2022-10-05T23:13:39.606Z,9.57
2022-10-05T23:16:15.340Z,8.47
2022-10-05T23:18:43.748Z,8.80
2022-10-05T23:21:12.112Z,7.40
2022-10-05T23:23:40.880Z,8.13
2022-10-05T23:26:09.560Z,9.17
2022-10-05T23:28:37.676Z,8.40
2022-10-05T23:31:06.921Z,7.33
2022-10-05T23:33:35.074Z,8.10
2022-10-05T23:36:07.929Z,9.57
2022-10-05T23:38:36.436Z,7.30
2022-10-05T23:41:04.369Z,7.90
2022-10-05T23:43:33.605Z,8.90
2022-10-05T23:46:01.869Z,7.50
2022-10-05T23:48:30.829Z,7.57
2022-10-05T23:50:59.183Z,9.87
2022-10-05T23:53:27.099Z,7.63
2022-10-05T23:55:55.343Z,7.50
2022-10-05T23:58:23.776Z,7.43
